sensor_id;sensor_type;location;lat;lon;timestamp;pressure;altitude;pressure_sealevel;temperature;humidity
16120;BME280;12670;53.502;10.252;2022-09-24T00:02:39;100964.47;;;14.61;96.91
16120;BME280;12670;53.502;10.252;2022-09-24T00:05:41;100964.03;;;14.69;97.38
16120;BME280;12670;53.502;10.252;2022-09-24T00:08:45;100953.88;;;14.60;97.86
16120;BME280;12670;53.502;10.252;2022-09-24T00:11:48;100957.81;;;14.53;98.49
16120;BME280;12670;53.502;10.252;2022-09-24T00:14:51;100961.38;;;14.69;98.18
16120;BME280;12670;53.502;10.252;2022-09-24T00:17:55;100958.50;;;14.56;98.35
16120;BME280;12670;53.502;10.252;2022-09-24T00:20:58;100957.81;;;14.53;98.49
16120;BME280;12670;53.502;10.252;2022-09-24T00:24:05;100946.56;;;14.46;98.67
16120;BME280;12670;53.502;10.252;2022-09-24T00:27:07;100947.06;;;14.54;98.99
16120;BME280;12670;53.502;10.252;2022-09-24T00:30:10;100943.03;;;14.46;99.43
16120;BME280;12670;53.502;10.252;2022-09-24T00:33:14;100944.84;;;14.45;99.19
16120;BME280;12670;53.502;10.252;2022-09-24T00:36:17;100939.22;;;14.51;99.21
16120;BME280;12670;53.502;10.252;2022-09-24T00:39:20;100938.13;;;14.38;99.57
16120;BME280;12670;53.502;10.252;2022-09-24T00:42:22;100938.25;;;14.52;99.30
16120;BME280;12670;53.502;10.252;2022-09-24T00:45:26;100941.63;;;14.56;98.60
16120;BME280;12670;53.502;10.252;2022-09-24T00:48:32;100950.41;;;14.58;98.06
16120;BME280;12670;53.502;10.252;2022-09-24T00:51:35;100944.72;;;14.48;98.70
16120;BME280;12670;53.502;10.252;2022-09-24T00:54:38;100931.66;;;14.42;98.86
16120;BME280;12670;53.502;10.252;2022-09-24T00:57:43;100940.78;;;14.38;99.64
16120;BME280;12670;53.502;10.252;2022-09-24T01:00:47;100931.75;;;14.40;99.46
16120;BME280;12670;53.502;10.252;2022-09-24T01:03:54;100930.47;;;14.32;99.61
16120;BME280;12670;53.502;10.252;2022-09-24T01:06:58;100941.56;;;14.40;99.84
16120;BME280;12670;53.502;10.252;2022-09-24T01:10:00;100935.44;;;14.55;97.43
16120;BME280;12670;53.502;10.252;2022-09-24T01:13:11;100932.47;;;14.44;98.05
16120;BME280;12670;53.502;10.252;2022-09-24T01:16:23;100919.97;;;14.45;97.89
16120;BME280;12670;53.502;10.252;2022-09-24T01:19:51;100916.28;;;14.47;98.69
16120;BME280;12670;53.502;10.252;2022-09-24T01:23:06;100925.72;;;14.37;98.38
16120;BME280;12670;53.502;10.252;2022-09-24T01:26:25;100921.41;;;14.34;97.72
16120;BME280;12670;53.502;10.252;2022-09-24T01:30:00;100925.28;;;14.29;98.77
16120;BME280;12670;53.502;10.252;2022-09-24T01:33:06;100922.88;;;14.40;98.15
16120;BME280;12670;53.502;10.252;2022-09-24T01:36:14;100921.31;;;14.36;95.95
16120;BME280;12670;53.502;10.252;2022-09-24T01:39:19;100924.81;;;14.54;96.53
16120;BME280;12670;53.502;10.252;2022-09-24T01:42:22;100921.38;;;14.52;96.74
16120;BME280;12670;53.502;10.252;2022-09-24T01:45:29;100922.94;;;14.56;96.53
16120;BME280;12670;53.502;10.252;2022-09-24T01:48:34;100916.28;;;14.47;96.97
16120;BME280;12670;53.502;10.252;2022-09-24T01:51:40;100917.00;;;14.51;96.97
16120;BME280;12670;53.502;10.252;2022-09-24T01:54:46;100908.53;;;14.43;97.54
16120;BME280;12670;53.502;10.252;2022-09-24T01:57:56;100909.19;;;14.46;97.05
16120;BME280;12670;53.502;10.252;2022-09-24T02:01:05;100916.16;;;14.33;97.24
16120;BME280;12670;53.502;10.252;2022-09-24T02:04:13;100905.84;;;14.43;97.03
16120;BME280;12670;53.502;10.252;2022-09-24T02:07:21;100908.84;;;14.36;97.87
16120;BME280;12670;53.502;10.252;2022-09-24T02:10:29;100902.13;;;14.29;97.98
16120;BME280;12670;53.502;10.252;2022-09-24T02:13:36;100904.63;;;14.32;97.73
16120;BME280;12670;53.502;10.252;2022-09-24T02:16:43;100911.78;;;14.32;97.71
16120;BME280;12670;53.502;10.252;2022-09-24T02:19:48;100901.16;;;14.30;98.25
16120;BME280;12670;53.502;10.252;2022-09-24T02:22:53;100908.91;;;14.35;98.23
16120;BME280;12670;53.502;10.252;2022-09-24T02:25:58;100912.09;;;14.26;97.71
16120;BME280;12670;53.502;10.252;2022-09-24T02:29:02;100905.41;;;14.34;98.41
16120;BME280;12670;53.502;10.252;2022-09-24T02:32:08;100905.72;;;14.28;98.09
16120;BME280;12670;53.502;10.252;2022-09-24T02:35:12;100911.59;;;14.35;98.19
16120;BME280;12670;53.502;10.252;2022-09-24T02:38:14;100907.81;;;14.39;98.40
16120;BME280;12670;53.502;10.252;2022-09-24T02:41:18;100900.06;;;14.34;98.37
16120;BME280;12670;53.502;10.252;2022-09-24T02:44:22;100894.72;;;14.34;98.29
16120;BME280;12670;53.502;10.252;2022-09-24T02:47:26;100899.72;;;14.40;98.81
16120;BME280;12670;53.502;10.252;2022-09-24T02:50:29;100898.34;;;14.33;99.01
16120;BME280;12670;53.502;10.252;2022-09-24T02:53:32;100896.44;;;14.35;98.82
16120;BME280;12670;53.502;10.252;2022-09-24T02:56:35;100897.63;;;14.30;99.34
16120;BME280;12670;53.502;10.252;2022-09-24T02:59:37;100894.28;;;14.26;99.52
16120;BME280;12670;53.502;10.252;2022-09-24T03:02:42;100895.56;;;14.35;99.49
16120;BME280;12670;53.502;10.252;2022-09-24T03:05:44;100893.16;;;14.30;99.65
16120;BME280;12670;53.502;10.252;2022-09-24T03:08:47;100894.19;;;14.28;99.57
16120;BME280;12670;53.502;10.252;2022-09-24T03:11:49;100883.84;;;14.22;100.00
16120;BME280;12670;53.502;10.252;2022-09-24T03:14:52;100894.44;;;14.23;99.88
16120;BME280;12670;53.502;10.252;2022-09-24T03:17:56;100897.47;;;14.33;98.81
16120;BME280;12670;53.502;10.252;2022-09-24T03:21:00;100899.72;;;14.25;99.16
16120;BME280;12670;53.502;10.252;2022-09-24T03:24:03;100901.44;;;14.26;99.50
16120;BME280;12670;53.502;10.252;2022-09-24T03:27:06;100900.56;;;14.25;99.51
16120;BME280;12670;53.502;10.252;2022-09-24T03:30:09;100899.88;;;14.22;100.00
16120;BME280;12670;53.502;10.252;2022-09-24T03:33:33;100897.63;;;14.30;99.37
16120;BME280;12670;53.502;10.252;2022-09-24T03:36:35;100901.78;;;14.35;98.86
16120;BME280;12670;53.502;10.252;2022-09-24T03:39:38;100900.72;;;14.22;100.00
16120;BME280;12670;53.502;10.252;2022-09-24T03:42:40;100889.03;;;14.25;99.77
16120;BME280;12670;53.502;10.252;2022-09-24T03:45:43;100889.03;;;14.25;100.00
16120;BME280;12670;53.502;10.252;2022-09-24T03:48:47;100892.28;;;14.14;99.83
16120;BME280;12670;53.502;10.252;2022-09-24T03:51:50;100892.53;;;14.09;100.00
16120;BME280;12670;53.502;10.252;2022-09-24T03:54:52;100895.31;;;14.24;99.64
16120;BME280;12670;53.502;10.252;2022-09-24T03:57:55;100892.81;;;14.21;99.94
16120;BME280;12670;53.502;10.252;2022-09-24T04:00:58;100889.19;;;14.22;99.90
16120;BME280;12670;53.502;10.252;2022-09-24T04:04:02;100880.94;;;14.26;99.33
16120;BME280;12670;53.502;10.252;2022-09-24T04:07:05;100878.94;;;14.14;100.00
16120;BME280;12670;53.502;10.252;2022-09-24T04:10:07;100876.91;;;14.19;100.00
16120;BME280;12670;53.502;10.252;2022-09-24T04:13:10;100874.75;;;14.26;99.30
16120;BME280;12670;53.502;10.252;2022-09-24T04:16:12;100875.94;;;14.20;99.58
16120;BME280;12670;53.502;10.252;2022-09-24T04:19:16;100881.69;;;14.12;100.00
16120;BME280;12670;53.502;10.252;2022-09-24T04:22:19;100877.28;;;14.11;100.00
16120;BME280;12670;53.502;10.252;2022-09-24T04:25:23;100876.97;;;14.18;100.00
16120;BME280;12670;53.502;10.252;2022-09-24T04:28:26;100882.91;;;14.23;99.66
16120;BME280;12670;53.502;10.252;2022-09-24T04:31:28;100877.75;;;14.20;100.00
16120;BME280;12670;53.502;10.252;2022-09-24T04:34:34;100881.44;;;14.17;100.00
16120;BME280;12670;53.502;10.252;2022-09-24T04:37:36;100871.28;;;14.24;100.00
16120;BME280;12670;53.502;10.252;2022-09-24T04:40:39;100870.44;;;14.23;100.00
16120;BME280;12670;53.502;10.252;2022-09-24T04:43:42;100869.56;;;14.23;100.00
16120;BME280;12670;53.502;10.252;2022-09-24T04:46:47;100871.63;;;14.18;100.00
16120;BME280;12670;53.502;10.252;2022-09-24T04:49:51;100883.53;;;14.28;100.00
16120;BME280;12670;53.502;10.252;2022-09-24T04:52:54;100873.72;;;14.28;100.00
16120;BME280;12670;53.502;10.252;2022-09-24T04:55:57;100869.75;;;14.20;100.00
16120;BME280;12670;53.502;10.252;2022-09-24T04:59:00;100868.53;;;14.09;100.00
16120;BME280;12670;53.502;10.252;2022-09-24T05:02:02;100877.22;;;14.13;100.00
16120;BME280;12670;53.502;10.252;2022-09-24T05:05:11;100871.09;;;14.11;100.00
16120;BME280;12670;53.502;10.252;2022-09-24T05:08:14;100871.09;;;14.11;100.00
16120;BME280;12670;53.502;10.252;2022-09-24T05:11:17;100867.75;;;14.07;100.00
16120;BME280;12670;53.502;10.252;2022-09-24T05:14:20;100868.66;;;14.06;100.00
16120;BME280;12670;53.502;10.252;2022-09-24T05:17:23;100865.09;;;14.07;100.00
16120;BME280;12670;53.502;10.252;2022-09-24T05:20:27;100871.63;;;14.18;100.00
16120;BME280;12670;53.502;10.252;2022-09-24T05:23:29;100869.41;;;14.26;100.00
16120;BME280;12670;53.502;10.252;2022-09-24T05:26:32;100874.16;;;14.36;100.00
16120;BME280;12670;53.502;10.252;2022-09-24T05:29:52;100870.53;;;14.22;100.00
16120;BME280;12670;53.502;10.252;2022-09-24T05:32:54;100869.56;;;14.23;100.00
16120;BME280;12670;53.502;10.252;2022-09-24T05:35:58;100871.22;;;14.25;100.00
16120;BME280;12670;53.502;10.252;2022-09-24T05:39:01;100861.75;;;14.20;100.00
16120;BME280;12670;53.502;10.252;2022-09-24T05:42:04;100867.16;;;14.18;100.00
16120;BME280;12670;53.502;10.252;2022-09-24T05:45:08;100868.72;;;14.38;100.00
16120;BME280;12670;53.502;10.252;2022-09-24T05:48:12;100864.41;;;14.35;100.00
16120;BME280;12670;53.502;10.252;2022-09-24T05:51:16;100869.06;;;14.32;100.00
16120;BME280;12670;53.502;10.252;2022-09-24T05:54:19;100867.16;;;14.34;100.00
16120;BME280;12670;53.502;10.252;2022-09-24T05:57:21;100881.47;;;14.33;100.00
16120;BME280;12670;53.502;10.252;2022-09-24T06:00:24;100876.13;;;14.33;100.00
16120;BME280;12670;53.502;10.252;2022-09-24T06:03:26;100876.22;;;14.31;100.00
16120;BME280;12670;53.502;10.252;2022-09-24T06:06:31;100883.19;;;14.34;100.00
16120;BME280;12670;53.502;10.252;2022-09-24T06:09:34;100876.28;;;14.30;100.00
16120;BME280;12670;53.502;10.252;2022-09-24T06:12:36;100871.66;;;14.33;100.00
16120;BME280;12670;53.502;10.252;2022-09-24T06:15:39;100886.13;;;14.45;100.00
16120;BME280;12670;53.502;10.252;2022-09-24T06:18:42;100890.44;;;14.48;100.00
16120;BME280;12670;53.502;10.252;2022-09-24T06:21:46;100882.69;;;14.43;100.00
16120;BME280;12670;53.502;10.252;2022-09-24T06:24:49;100884.50;;;14.43;100.00
16120;BME280;12670;53.502;10.252;2022-09-24T06:27:52;100885.16;;;14.46;100.00
16120;BME280;12670;53.502;10.252;2022-09-24T06:30:58;100888.78;;;14.29;100.00
16120;BME280;12670;53.502;10.252;2022-09-24T06:34:01;100890.91;;;14.56;100.00
16120;BME280;12670;53.502;10.252;2022-09-24T06:37:05;100890.44;;;14.48;100.00
16120;BME280;12670;53.502;10.252;2022-09-24T06:40:08;100889.75;;;14.44;100.00
16120;BME280;12670;53.502;10.252;2022-09-24T06:43:11;100891.00;;;14.54;100.00
16120;BME280;12670;53.502;10.252;2022-09-24T06:46:14;100894.69;;;14.52;100.00
16120;BME280;12670;53.502;10.252;2022-09-24T06:49:17;100887.84;;;14.46;100.00
16120;BME280;12670;53.502;10.252;2022-09-24T06:52:21;100898.72;;;14.43;100.00
16120;BME280;12670;53.502;10.252;2022-09-24T06:55:24;100895.56;;;14.35;100.00
16120;BME280;12670;53.502;10.252;2022-09-24T06:58:26;100895.09;;;14.44;100.00
16120;BME280;12670;53.502;10.252;2022-09-24T07:01:29;100900.13;;;14.50;100.00
16120;BME280;12670;53.502;10.252;2022-09-24T07:04:32;100898.84;;;14.40;100.00
16120;BME280;12670;53.502;10.252;2022-09-24T07:07:35;100906.97;;;14.38;100.00
16120;BME280;12670;53.502;10.252;2022-09-24T07:10:41;100909.88;;;14.34;100.00
16120;BME280;12670;53.502;10.252;2022-09-24T07:13:43;100904.63;;;14.32;100.00
16120;BME280;12670;53.502;10.252;2022-09-24T07:16:46;100899.19;;;14.34;100.00
16120;BME280;12670;53.502;10.252;2022-09-24T07:19:48;100896.78;;;14.29;100.00
16120;BME280;12670;53.502;10.252;2022-09-24T07:22:53;100894.38;;;14.25;100.00
16120;BME280;12670;53.502;10.252;2022-09-24T07:25:56;100899.28;;;13.99;100.00
16120;BME280;12670;53.502;10.252;2022-09-24T07:28:58;100905.69;;;14.12;100.00
16120;BME280;12670;53.502;10.252;2022-09-24T07:32:01;100907.53;;;14.28;100.00
16120;BME280;12670;53.502;10.252;2022-09-24T07:35:05;100913.81;;;14.27;100.00
16120;BME280;12670;53.502;10.252;2022-09-24T07:38:10;100906.66;;;13.78;100.00
16120;BME280;12670;53.502;10.252;2022-09-24T07:41:13;100909.63;;;14.05;100.00
16120;BME280;12670;53.502;10.252;2022-09-24T07:44:15;100914.63;;;14.11;100.00
16120;BME280;12670;53.502;10.252;2022-09-24T07:47:20;100916.38;;;14.12;100.00
16120;BME280;12670;53.502;10.252;2022-09-24T07:50:23;100922.63;;;13.96;100.00
16120;BME280;12670;53.502;10.252;2022-09-24T07:53:27;100920.34;;;13.71;100.00
16120;BME280;12670;53.502;10.252;2022-09-24T07:56:30;100915.81;;;13.90;100.00
16120;BME280;12670;53.502;10.252;2022-09-24T07:59:33;100915.66;;;13.76;100.00
16120;BME280;12670;53.502;10.252;2022-09-24T08:02:36;100916.59;;;13.75;100.00
16120;BME280;12670;53.502;10.252;2022-09-24T08:05:42;100924.38;;;13.79;100.00
16120;BME280;12670;53.502;10.252;2022-09-24T08:08:49;100917.84;;;13.85;100.00
16120;BME280;12670;53.502;10.252;2022-09-24T08:11:53;100928.34;;;13.88;100.00
16120;BME280;12670;53.502;10.252;2022-09-24T08:14:55;100934.47;;;13.90;100.00
16120;BME280;12670;53.502;10.252;2022-09-24T08:18:00;100929.91;;;13.92;100.00
16120;BME280;12670;53.502;10.252;2022-09-24T08:21:04;100926.91;;;13.98;100.00
16120;BME280;12670;53.502;10.252;2022-09-24T08:24:08;100934.28;;;14.10;100.00
16120;BME280;12670;53.502;10.252;2022-09-24T08:27:10;100939.84;;;14.06;100.00
16120;BME280;12670;53.502;10.252;2022-09-24T08:30:17;100943.03;;;14.12;100.00
16120;BME280;12670;53.502;10.252;2022-09-24T08:33:21;100933.41;;;14.10;100.00
16120;BME280;12670;53.502;10.252;2022-09-24T08:36:24;100931.47;;;13.96;100.00
16120;BME280;12670;53.502;10.252;2022-09-24T08:39:29;100932.81;;;13.87;100.00
16120;BME280;12670;53.502;10.252;2022-09-24T08:42:37;100932.34;;;13.97;100.00
16120;BME280;12670;53.502;10.252;2022-09-24T08:45:44;100934.28;;;14.10;100.00
16120;BME280;12670;53.502;10.252;2022-09-24T08:49:09;100933.78;;;14.20;100.00
16120;BME280;12670;53.502;10.252;2022-09-24T08:52:19;100931.56;;;14.28;100.00
16120;BME280;12670;53.502;10.252;2022-09-24T08:55:34;100942.16;;;13.96;100.00
16120;BME280;12670;53.502;10.252;2022-09-24T08:58:44;100939.47;;;14.13;100.00
16120;BME280;12670;53.502;10.252;2022-09-24T09:01:53;100936.03;;;14.27;100.00
16120;BME280;12670;53.502;10.252;2022-09-24T09:05:01;100943.94;;;14.29;100.00
16120;BME280;12670;53.502;10.252;2022-09-24T09:08:10;100942.41;;;14.25;100.00
16120;BME280;12670;53.502;10.252;2022-09-24T09:11:36;100940.34;;;14.30;100.00
16120;BME280;12670;53.502;10.252;2022-09-24T09:14:44;100946.63;;;14.29;100.00
16120;BME280;12670;53.502;10.252;2022-09-24T09:17:49;100948.84;;;14.21;100.00
16120;BME280;12670;53.502;10.252;2022-09-24T09:20:55;100950.84;;;14.33;100.00
16120;BME280;12670;53.502;10.252;2022-09-24T09:24:03;100949.06;;;14.33;100.00
16120;BME280;12670;53.502;10.252;2022-09-24T09:27:11;100957.91;;;14.34;100.00
16120;BME280;12670;53.502;10.252;2022-09-24T09:30:17;100934.31;;;14.42;100.00
16120;BME280;12670;53.502;10.252;2022-09-24T09:33:30;100946.84;;;14.08;100.00
16120;BME280;12670;53.502;10.252;2022-09-24T09:36:47;100940.19;;;14.33;100.00
16120;BME280;12670;53.502;10.252;2022-09-24T09:40:03;100941.03;;;14.33;100.00
16120;BME280;12670;53.502;10.252;2022-09-24T09:43:13;100946.91;;;14.40;100.00
16120;BME280;12670;53.502;10.252;2022-09-24T09:46:21;100949.63;;;14.23;100.00
16120;BME280;12670;53.502;10.252;2022-09-24T09:49:26;100946.47;;;14.32;100.00
16120;BME280;12670;53.502;10.252;2022-09-24T09:52:35;100946.63;;;14.29;100.00
16120;BME280;12670;53.502;10.252;2022-09-24T09:55:38;100945.00;;;14.42;100.00
16120;BME280;12670;53.502;10.252;2022-09-24T09:58:44;100942.50;;;14.56;100.00
16120;BME280;12670;53.502;10.252;2022-09-24T10:01:49;100954.97;;;14.56;100.00
16120;BME280;12670;53.502;10.252;2022-09-24T10:04:57;100942.66;;;14.53;100.00
16120;BME280;12670;53.502;10.252;2022-09-24T10:08:00;100949.22;;;14.63;100.00
16120;BME280;12670;53.502;10.252;2022-09-24T10:11:03;100946.66;;;14.45;100.00
16120;BME280;12670;53.502;10.252;2022-09-24T10:14:10;100950.25;;;14.61;100.00
16120;BME280;12670;53.502;10.252;2022-09-24T10:17:16;100952.94;;;14.61;100.00
16120;BME280;12670;53.502;10.252;2022-09-24T10:20:22;100955.06;;;14.70;100.00
16120;BME280;12670;53.502;10.252;2022-09-24T10:23:32;100950.78;;;14.68;100.00
16120;BME280;12670;53.502;10.252;2022-09-24T10:26:39;100946.19;;;14.70;100.00
16120;BME280;12670;53.502;10.252;2022-09-24T10:29:47;100952.13;;;14.59;100.00
16120;BME280;12670;53.502;10.252;2022-09-24T10:33:11;100947.50;;;14.62;100.00
16120;BME280;12670;53.502;10.252;2022-09-24T10:36:15;100947.94;;;14.86;100.00
16120;BME280;12670;53.502;10.252;2022-09-24T10:39:20;100950.00;;;14.97;100.00
16120;BME280;12670;53.502;10.252;2022-09-24T10:42:25;100954.03;;;15.04;100.00
16120;BME280;12670;53.502;10.252;2022-09-24T10:45:41;100948.09;;;14.99;100.00
16120;BME280;12670;53.502;10.252;2022-09-24T10:48:54;100954.03;;;15.04;100.00
16120;BME280;12670;53.502;10.252;2022-09-24T10:52:10;100939.91;;;15.02;100.00
16120;BME280;12670;53.502;10.252;2022-09-24T10:55:29;100949.03;;;14.98;100.00
16120;BME280;12670;53.502;10.252;2022-09-24T10:58:52;100949.50;;;14.90;100.00
16120;BME280;12670;53.502;10.252;2022-09-24T11:02:16;100950.75;;;14.99;100.00
16120;BME280;12670;53.502;10.252;2022-09-24T11:05:23;100953.72;;;14.79;100.00
16120;BME280;12670;53.502;10.252;2022-09-24T11:08:53;100951.81;;;14.81;100.00
16120;BME280;12670;53.502;10.252;2022-09-24T11:12:03;100952.50;;;14.84;100.00
16120;BME280;12670;53.502;10.252;2022-09-24T11:15:20;100955.00;;;14.87;100.00
16120;BME280;12670;53.502;10.252;2022-09-24T11:18:39;100952.66;;;14.97;100.00
16120;BME280;12670;53.502;10.252;2022-09-24T11:21:59;100946.38;;;14.98;100.00
16120;BME280;12670;53.502;10.252;2022-09-24T11:25:18;100948.88;;;15.01;100.00
16120;BME280;12670;53.502;10.252;2022-09-24T11:32:14;100945.25;;;14.86;100.00
16120;BME280;12670;53.502;10.252;2022-09-24T11:35:31;100944.75;;;14.80;100.00
16120;BME280;12670;53.502;10.252;2022-09-24T11:38:49;100947.13;;;15.00;100.00
16120;BME280;12670;53.502;10.252;2022-09-24T11:42:00;100949.75;;;15.02;100.00
16120;BME280;12670;53.502;10.252;2022-09-24T11:45:26;100943.19;;;14.91;100.00
16120;BME280;12670;53.502;10.252;2022-09-24T11:48:47;100949.13;;;14.97;100.00
16120;BME280;12670;53.502;10.252;2022-09-24T11:52:01;100943.69;;;14.98;100.00
16120;BME280;12670;53.502;10.252;2022-09-24T11:55:14;100944.06;;;14.92;100.00
16120;BME280;12670;53.502;10.252;2022-09-24T11:58:23;100947.84;;;15.04;100.00
16120;BME280;12670;53.502;10.252;2022-09-24T12:01:30;100938.78;;;15.06;100.00
16120;BME280;12670;53.502;10.252;2022-09-24T12:04:44;100944.91;;;15.08;100.00
16120;BME280;12670;53.502;10.252;2022-09-24T12:07:52;100937.13;;;15.19;100.00
16120;BME280;12670;53.502;10.252;2022-09-24T12:11:05;100939.31;;;15.13;100.00
16120;BME280;12670;53.502;10.252;2022-09-24T12:14:13;100944.47;;;15.00;100.00
16120;BME280;12670;53.502;10.252;2022-09-24T12:17:22;100948.34;;;15.10;100.00
16120;BME280;12670;53.502;10.252;2022-09-24T12:20:28;100943.44;;;15.03;100.00
16120;BME280;12670;53.502;10.252;2022-09-24T12:23:36;100936.31;;;14.72;100.00
16120;BME280;12670;53.502;10.252;2022-09-24T12:26:40;100934.91;;;14.80;100.00
16120;BME280;12670;53.502;10.252;2022-09-24T12:29:47;100939.50;;;14.78;100.00
16120;BME280;12670;53.502;10.252;2022-09-24T12:33:14;100937.84;;;15.07;100.00
16120;BME280;12670;53.502;10.252;2022-09-24T12:36:22;100935.44;;;14.87;100.00
16120;BME280;12670;53.502;10.252;2022-09-24T12:39:30;100937.50;;;14.98;100.00
16120;BME280;12670;53.502;10.252;2022-09-24T12:42:40;100932.16;;;14.98;100.00
16120;BME280;12670;53.502;10.252;2022-09-24T12:45:44;100932.19;;;14.66;100.00
16120;BME280;12670;53.502;10.252;2022-09-24T12:48:48;100928.19;;;14.89;100.00
16120;BME280;12670;53.502;10.252;2022-09-24T12:51:53;100928.03;;;14.92;100.00
16120;BME280;12670;53.502;10.252;2022-09-24T12:55:00;100928.81;;;14.78;100.00
16120;BME280;12670;53.502;10.252;2022-09-24T12:58:04;100927.31;;;15.04;100.00
16120;BME280;12670;53.502;10.252;2022-09-24T13:01:11;100917.03;;;15.12;100.00
16120;BME280;12670;53.502;10.252;2022-09-24T13:04:25;100920.00;;;14.92;100.00
16120;BME280;12670;53.502;10.252;2022-09-24T13:07:30;100917.59;;;15.03;100.00
16120;BME280;12670;53.502;10.252;2022-09-24T13:10:35;100920.25;;;15.19;100.00
16120;BME280;12670;53.502;10.252;2022-09-24T13:13:38;100921.09;;;15.19;100.00
16120;BME280;12670;53.502;10.252;2022-09-24T13:16:46;100916.63;;;15.20;100.00
16120;BME280;12670;53.502;10.252;2022-09-24T13:19:56;100923.19;;;15.14;100.00
16120;BME280;12670;53.502;10.252;2022-09-24T13:23:11;100919.94;;;15.24;100.00
16120;BME280;12670;53.502;10.252;2022-09-24T13:26:36;100916.91;;;15.30;100.00
16120;BME280;12670;53.502;10.252;2022-09-24T13:29:40;100914.91;;;15.19;100.00
16120;BME280;12670;53.502;10.252;2022-09-24T13:32:53;100916.63;;;15.20;100.00
16120;BME280;12670;53.502;10.252;2022-09-24T13:36:03;100920.16;;;15.20;100.00
16120;BME280;12670;53.502;10.252;2022-09-24T13:39:12;100923.53;;;15.08;100.00
16120;BME280;12670;53.502;10.252;2022-09-24T13:42:30;100911.63;;;15.14;100.00
16120;BME280;12670;53.502;10.252;2022-09-24T13:45:35;100913.69;;;15.09;100.00
16120;BME280;12670;53.502;10.252;2022-09-24T13:48:46;100921.41;;;15.29;100.00
16120;BME280;12670;53.502;10.252;2022-09-24T13:51:56;100920.19;;;15.35;100.00
16120;BME280;12670;53.502;10.252;2022-09-24T13:55:05;100911.41;;;15.33;100.00
16120;BME280;12670;53.502;10.252;2022-09-24T13:58:26;100912.47;;;15.30;100.00
16120;BME280;12670;53.502;10.252;2022-09-24T14:01:35;100913.19;;;15.48;100.00
16120;BME280;12670;53.502;10.252;2022-09-24T14:04:40;100916.22;;;15.42;100.00
16120;BME280;12670;53.502;10.252;2022-09-24T14:07:52;100903.63;;;15.44;100.00
16120;BME280;12670;53.502;10.252;2022-09-24T14:11:03;100907.31;;;15.41;100.00
16120;BME280;12670;53.502;10.252;2022-09-24T14:14:15;100908.59;;;15.50;100.00
16120;BME280;12670;53.502;10.252;2022-09-24T14:17:20;100910.03;;;15.56;100.00
16120;BME280;12670;53.502;10.252;2022-09-24T14:20:24;100902.38;;;15.65;100.00
16120;BME280;12670;53.502;10.252;2022-09-24T14:23:30;100901.22;;;15.39;100.00
16120;BME280;12670;53.502;10.252;2022-09-24T14:26:37;100900.50;;;15.36;100.00
16120;BME280;12670;53.502;10.252;2022-09-24T14:29:47;100903.03;;;15.53;100.00
16120;BME280;12670;53.502;10.252;2022-09-24T14:32:54;100891.50;;;15.53;100.00
16120;BME280;12670;53.502;10.252;2022-09-24T14:35:59;100890.09;;;15.61;100.00
16120;BME280;12670;53.502;10.252;2022-09-24T14:39:04;100892.44;;;15.67;100.00
16120;BME280;12670;53.502;10.252;2022-09-24T14:42:09;100894.63;;;15.45;100.00
16120;BME280;12670;53.502;10.252;2022-09-24T14:45:19;100892.81;;;15.76;100.00
16120;BME280;12670;53.502;10.252;2022-09-24T14:48:27;100886.22;;;15.81;100.00
16120;BME280;12670;53.502;10.252;2022-09-24T14:51:30;100889.97;;;15.79;100.00
16120;BME280;12670;53.502;10.252;2022-09-24T14:54:35;100884.34;;;15.83;100.00
16120;BME280;12670;53.502;10.252;2022-09-24T14:57:38;100890.19;;;15.90;100.00
16120;BME280;12670;53.502;10.252;2022-09-24T15:00:50;100887.56;;;15.74;100.00
16120;BME280;12670;53.502;10.252;2022-09-24T15:03:56;100890.94;;;15.78;100.00
16120;BME280;12670;53.502;10.252;2022-09-24T15:07:00;100887.47;;;15.76;100.00
16120;BME280;12670;53.502;10.252;2022-09-24T15:10:04;100893.00;;;15.72;100.00
16120;BME280;12670;53.502;10.252;2022-09-24T15:13:14;100884.19;;;15.70;100.00
16120;BME280;12670;53.502;10.252;2022-09-24T15:16:28;100889.19;;;15.77;100.00
16120;BME280;12670;53.502;10.252;2022-09-24T15:19:30;100884.56;;;15.64;100.00
16120;BME280;12670;53.502;10.252;2022-09-24T15:22:33;100880.34;;;15.60;100.00
16120;BME280;12670;53.502;10.252;2022-09-24T15:25:36;100877.19;;;15.54;100.00
16120;BME280;12670;53.502;10.252;2022-09-24T15:28:39;100886.63;;;15.59;100.00
16120;BME280;12670;53.502;10.252;2022-09-24T15:31:43;100877.47;;;15.49;100.00
16120;BME280;12670;53.502;10.252;2022-09-24T15:34:46;100884.31;;;15.39;100.00
16120;BME280;12670;53.502;10.252;2022-09-24T15:37:49;100883.78;;;15.48;100.00
16120;BME280;12670;53.502;10.252;2022-09-24T15:40:51;100891.75;;;15.18;100.00
16120;BME280;12670;53.502;10.252;2022-09-24T15:43:55;100882.75;;;15.35;100.00
16120;BME280;12670;53.502;10.252;2022-09-24T15:47:00;100878.63;;;15.29;100.00
16120;BME280;12670;53.502;10.252;2022-09-24T15:50:03;100876.13;;;15.42;100.00
16120;BME280;12670;53.502;10.252;2022-09-24T15:53:06;100879.69;;;15.27;100.00
16120;BME280;12670;53.502;10.252;2022-09-24T15:56:08;100885.03;;;15.27;100.00
16120;BME280;12670;53.502;10.252;2022-09-24T15:59:12;100883.34;;;15.40;100.00